Time;durP1;ratioP1;P1;durP2;ratioP2;P2;SDS_P1;SDS_P2;PMS_P1;PMS_P2;Temp;Humidity;BMP_temperature;BMP_pressure;BME280_temperature;BME280_humidity;BME280_pressure;Samples;Min_cycle;Max_cycle;Signal;HPM_P1;HPM_P2
2023/07/12 00:00:03;;;;;;;4.10;1.80;;;;;;;20.11;100.00;151087.34;4954877;28;20240;-62
2023/07/12 00:02:50;;;;;;;7.53;1.70;;;;;;;20.10;100.00;151084.84;4950685;28;20231;-62
2023/07/12 00:05:17;;;;;;;4.37;1.60;;;;;;;20.13;100.00;151091.06;4961812;28;20604;-63
2023/07/12 00:07:46;;;;;;;4.60;1.57;;;;;;;20.23;100.00;151114.84;4966731;28;20240;-62
2023/07/12 00:10:16;;;;;;;4.77;1.53;;;;;;;20.18;100.00;151104.84;4959845;28;20319;-63
2023/07/12 00:12:43;;;;;;;4.40;1.70;;;;;;;20.17;100.00;151101.09;4966166;28;20241;-63
2023/07/12 00:15:12;;;;;;;6.63;1.70;;;;;;;20.13;100.00;151092.34;4970992;28;20251;-63
2023/07/12 00:17:39;;;;;;;8.80;1.63;;;;;;;20.12;100.00;151089.84;4967938;28;20329;-63
2023/07/12 00:20:17;;;;;;;4.77;1.70;;;;;;;20.11;100.00;151087.34;4975289;28;20250;-63
2023/07/12 00:22:44;;;;;;;5.33;1.47;;;;;;;20.08;100.00;151078.56;4966095;28;20248;-63
2023/07/12 00:25:11;;;;;;;5.10;1.90;;;;;;;20.09;100.00;151081.06;4966698;28;20247;-63
2023/07/12 00:27:37;;;;;;;5.00;1.73;;;;;;;20.08;100.00;151079.81;4971410;28;20707;-63
2023/07/12 00:30:11;;;;;;;4.40;1.77;;;;;;;20.06;100.00;151074.81;4973462;28;20752;-63
2023/07/12 00:32:39;;;;;;;4.53;1.70;;;;;;;19.99;100.00;151058.50;4970268;28;20623;-63
2023/07/12 00:35:06;;;;;;;8.27;2.30;;;;;;;20.00;100.00;151059.78;4967879;28;20235;-62
2023/07/12 00:37:34;;;;;;;2.93;1.67;;;;;;;19.96;100.00;151049.75;4955610;28;20227;-62
2023/07/12 00:40:00;;;;;;;5.67;2.13;;;;;;;19.98;100.00;151054.78;4952801;28;20313;-63
2023/07/12 00:42:32;;;;;;;7.40;1.83;;;;;;;20.04;100.00;151071.03;4959395;28;20340;-63
2023/07/12 00:44:59;;;;;;;4.43;1.70;;;;;;;20.16;100.00;151099.81;4965445;28;20302;-63
2023/07/12 00:47:26;;;;;;;7.27;2.37;;;;;;;20.42;100.00;151161.25;4984152;28;20314;-63
2023/07/12 00:49:53;;;;;;;3.57;2.10;;;;;;;20.70;97.74;151228.88;4983620;28;20234;-63
2023/07/12 00:52:21;;;;;;;4.27;2.13;;;;;;;20.89;97.11;151275.31;4984803;28;20256;-63
2023/07/12 00:54:53;;;;;;;3.07;1.80;;;;;;;21.09;95.62;151324.16;4986016;28;20227;-63
2023/07/12 00:57:20;;;;;;;5.60;2.10;;;;;;;21.22;92.19;151356.75;4984748;28;20320;-63
2023/07/12 00:59:46;;;;;;;8.77;3.10;;;;;;;21.26;95.35;151365.50;4967353;28;20223;-63
2023/07/12 01:02:15;;;;;;;5.60;2.73;;;;;;;21.29;94.81;151373.03;4972340;28;20243;-62
2023/07/12 01:04:48;;;;;;;5.83;2.53;;;;;;;21.38;96.79;151395.59;4984282;28;20234;-63
2023/07/12 01:07:16;;;;;;;8.57;2.80;;;;;;;21.38;97.54;151394.38;4970700;28;20310;-63
2023/07/12 01:09:43;;;;;;;9.23;2.90;;;;;;;21.28;99.40;151369.28;4971058;28;20232;-63
2023/07/12 01:12:11;;;;;;;8.37;2.70;;;;;;;21.11;100.00;151329.19;4985926;28;20280;-63
2023/07/12 01:14:39;;;;;;;7.70;3.00;;;;;;;20.86;100.00;151269.03;4972663;28;20224;-63
2023/07/12 01:17:07;;;;;;;8.50;2.60;;;;;;;20.64;100.00;151216.38;4983170;28;20894;-63
2023/07/12 01:19:35;;;;;;;7.10;3.33;;;;;;;20.51;100.00;151183.78;4964490;28;20223;-63
2023/07/12 01:22:05;;;;;;;8.30;3.23;;;;;;;20.42;100.00;151161.25;4988561;28;20235;-63
2023/07/12 01:24:35;;;;;;;10.57;3.40;;;;;;;20.28;100.00;151127.38;4977246;28;20237;-63
2023/07/12 01:27:11;;;;;;;6.50;3.80;;;;;;;20.22;100.00;151113.63;4945664;28;20236;-63
2023/07/12 01:29:39;;;;;;;5.87;3.87;;;;;;;20.18;100.00;151103.59;4977229;28;20233;-63
2023/07/12 01:32:06;;;;;;;6.27;3.70;;;;;;;20.15;100.00;151096.09;4953877;28;20238;-63
2023/07/12 01:34:33;;;;;;;7.33;3.50;;;;;;;20.13;100.00;151092.34;4975014;28;20234;-63
2023/07/12 01:37:04;;;;;;;9.33;4.07;;;;;;;20.05;100.00;151073.53;4977324;28;20235;-63
2023/07/12 01:39:32;;;;;;;9.73;4.27;;;;;;;20.02;100.00;151064.78;4973260;28;20689;-63
2023/07/12 01:41:58;;;;;;;12.43;4.40;;;;;;;19.91;100.00;151039.75;4969029;28;20303;-63
2023/07/12 01:44:25;;;;;;;8.47;4.10;;;;;;;19.81;100.00;151013.38;4970577;28;20233;-63
2023/07/12 01:46:52;;;;;;;5.37;3.77;;;;;;;19.75;100.00;150999.59;4949479;28;20297;-63
2023/07/12 01:49:18;;;;;;;5.87;3.70;;;;;;;19.71;100.00;150989.59;4976787;28;20539;-63
2023/07/12 01:51:45;;;;;;;9.50;4.07;;;;;;;19.62;100.00;150969.53;4959779;28;20279;-63
2023/07/12 01:54:14;;;;;;;8.73;4.27;;;;;;;19.55;100.00;150950.78;4968042;28;20282;-64
2023/07/12 01:56:42;;;;;;;9.07;4.13;;;;;;;19.52;100.00;150943.28;4964068;28;20751;-64
2023/07/12 01:59:09;;;;;;;7.87;4.17;;;;;;;19.50;100.00;150939.47;4972734;28;20244;-64
2023/07/12 02:01:35;;;;;;;9.03;4.47;;;;;;;19.52;100.00;150943.28;4958535;28;20243;-64
2023/07/12 02:04:03;;;;;;;7.17;4.43;;;;;;;19.47;100.00;150933.25;4967026;28;20751;-64
2023/07/12 02:06:29;;;;;;;10.47;4.50;;;;;;;19.41;100.00;150918.22;4955392;28;20641;-64
2023/07/12 02:08:56;;;;;;;6.43;4.23;;;;;;;19.35;100.00;150901.91;4967463;28;20232;-64
2023/07/12 02:11:23;;;;;;;7.57;4.80;;;;;;;19.29;100.00;150889.38;4964510;28;20242;-64
2023/07/12 02:13:51;;;;;;;10.07;4.93;;;;;;;19.27;100.00;150883.16;4962577;28;20226;-64
2023/07/12 02:16:18;;;;;;;9.53;4.70;;;;;;;19.26;100.00;150881.88;4978697;28;20710;-64
2023/07/12 02:18:45;;;;;;;11.30;4.93;;;;;;;19.34;100.00;150900.69;4938414;28;20263;-64
2023/07/12 02:21:12;;;;;;;13.03;4.80;;;;;;;19.37;100.00;150906.94;4967123;28;20263;-64
2023/07/12 02:23:39;;;;;;;10.27;5.03;;;;;;;19.52;100.00;150944.50;4980304;28;20294;-64
2023/07/12 02:26:08;;;;;;;9.00;4.73;;;;;;;19.58;100.00;150959.53;4984329;28;20222;-64
2023/07/12 02:28:37;;;;;;;6.87;4.77;;;;;;;19.58;100.00;150958.28;4961755;28;20591;-64
2023/07/12 02:31:21;;;;;;;11.13;4.60;;;;;;;19.61;100.00;150965.75;4953871;28;20678;-64
2023/07/12 02:33:48;;;;;;;8.53;4.67;;;;;;;19.59;100.00;150962.03;4969368;28;20237;-64
2023/07/12 02:36:15;;;;;;;8.63;5.00;;;;;;;19.57;100.00;150957.03;4976745;28;20314;-64
2023/07/12 02:38:48;;;;;;;9.87;4.87;;;;;;;19.54;100.00;150949.50;4975430;28;20302;-64
2023/07/12 02:41:15;;;;;;;14.50;4.80;;;;;;;19.53;100.00;150947.00;4980462;28;20238;-64
2023/07/12 02:43:41;;;;;;;9.80;5.40;;;;;;;19.57;100.00;150957.03;4978623;28;20335;-64
2023/07/12 02:46:13;;;;;;;8.53;5.00;;;;;;;19.59;100.00;150962.03;4967850;28;20229;-64
2023/07/12 02:48:41;;;;;;;10.70;5.10;;;;;;;19.57;100.00;150957.03;4970879;28;20243;-64
2023/07/12 02:51:12;;;;;;;8.50;5.03;;;;;;;19.68;100.00;150982.06;4973730;28;20268;-64
2023/07/12 02:53:39;;;;;;;7.60;5.40;;;;;;;19.74;100.00;150998.31;4983090;28;20636;-64
2023/07/12 02:56:10;;;;;;;8.53;4.83;;;;;;;19.80;100.00;151012.13;4983484;28;20227;-64
2023/07/12 02:58:36;;;;;;;11.33;5.20;;;;;;;19.83;100.00;151019.66;4965741;28;20243;-64
2023/07/12 03:01:03;;;;;;;11.83;5.10;;;;;;;19.86;100.00;151025.88;4972255;28;20236;-64
2023/07/12 03:03:30;;;;;;;8.00;5.23;;;;;;;19.87;100.00;151028.41;4979887;28;20274;-64
2023/07/12 03:06:02;;;;;;;10.90;5.23;;;;;;;19.94;100.00;151045.97;4984273;28;20237;-64
2023/07/12 03:08:29;;;;;;;8.50;4.93;;;;;;;19.98;100.00;151054.78;4973174;28;20242;-64
2023/07/12 03:10:58;;;;;;;11.17;5.40;;;;;;;20.17;100.00;151101.09;4980808;28;20280;-64
2023/07/12 03:13:24;;;;;;;10.07;5.03;;;;;;;20.32;100.00;151137.41;4967845;28;20240;-64
2023/07/12 03:15:51;;;;;;;8.93;5.50;;;;;;;20.44;100.00;151167.47;4968263;28;20282;-64
2023/07/12 03:18:17;;;;;;;11.83;5.70;;;;;;;20.54;100.00;151191.31;4963891;28;20704;-64
2023/07/12 03:20:44;;;;;;;10.50;5.37;;;;;;;20.57;100.00;151198.84;4975765;28;20851;-64
2023/07/12 03:23:12;;;;;;;9.63;5.23;;;;;;;20.69;100.00;151226.34;4964202;28;20243;-64
2023/07/12 03:25:38;;;;;;;8.27;5.07;;;;;;;20.65;100.00;151217.59;4980532;28;20242;-64
2023/07/12 03:28:05;;;;;;;10.37;5.17;;;;;;;20.68;100.00;151223.84;4963637;28;20380;-64
2023/07/12 03:33:09;;;;;;;9.43;5.13;;;;;;;20.76;100.00;151243.91;4945378;28;20234;-64
2023/07/12 03:35:35;;;;;;;10.83;5.33;;;;;;;20.71;100.00;151231.38;4938125;28;20243;-64
2023/07/12 03:38:02;;;;;;;12.37;5.00;;;;;;;20.76;100.00;151243.91;4955777;28;20278;-64
2023/07/12 03:40:30;;;;;;;10.67;5.40;;;;;;;20.74;100.00;151240.16;4964766;28;20244;-64
2023/07/12 03:42:56;;;;;;;8.17;4.80;;;;;;;20.90;100.00;151277.81;4967772;28;20243;-64
2023/07/12 03:45:23;;;;;;;7.90;5.10;;;;;;;20.90;100.00;151277.81;4965201;28;20297;-64
2023/07/12 03:47:50;;;;;;;11.23;5.30;;;;;;;21.08;100.00;151321.66;4967681;28;20894;-64
2023/07/12 03:50:16;;;;;;;10.33;5.17;;;;;;;21.10;100.00;151326.69;4964655;28;20812;-64
2023/07/12 03:52:43;;;;;;;8.97;5.40;;;;;;;21.20;100.00;151350.50;4968048;28;20639;-64
2023/07/12 03:55:09;;;;;;;10.03;4.90;;;;;;;21.36;99.81;151389.34;4963961;28;20294;-64
2023/07/12 03:57:41;;;;;;;9.67;5.10;;;;;;;21.42;99.61;151403.13;4966130;28;20732;-64
2023/07/12 04:00:09;;;;;;;13.00;5.63;;;;;;;21.48;99.58;151419.44;4982213;28;20230;-64
2023/07/12 04:02:39;;;;;;;7.30;4.60;;;;;;;21.51;98.02;151426.97;4965041;28;20239;-64
2023/07/12 04:05:06;;;;;;;11.20;5.13;;;;;;;21.56;96.56;151438.22;4967213;28;20239;-64
2023/07/12 04:07:33;;;;;;;10.07;5.23;;;;;;;21.60;99.40;151448.25;4963913;28;20246;-64
2023/07/12 04:09:59;;;;;;;8.80;4.60;;;;;;;21.68;97.54;151467.13;4966765;28;20234;-64
2023/07/12 04:12:26;;;;;;;8.50;4.73;;;;;;;21.70;98.02;151470.88;4963289;28;20238;-64
2023/07/12 04:14:54;;;;;;;12.60;4.97;;;;;;;21.78;95.61;151492.16;4966768;28;20233;-64
2023/07/12 04:17:21;;;;;;;9.33;5.00;;;;;;;21.84;95.94;151506.00;4965006;28;20241;-64
2023/07/12 04:19:48;;;;;;;13.23;5.53;;;;;;;21.76;96.54;151487.16;4967682;28;20232;-64
2023/07/12 04:22:14;;;;;;;9.67;4.70;;;;;;;21.81;95.75;151499.69;4963736;28;20243;-65
2023/07/12 04:24:41;;;;;;;9.23;5.20;;;;;;;21.80;96.58;151497.19;4966959;28;20247;-62
2023/07/12 04:27:07;;;;;;;9.57;4.60;;;;;;;21.83;95.91;151503.47;4967832;28;20236;-64
2023/07/12 04:29:34;;;;;;;8.73;5.13;;;;;;;21.84;95.29;151506.00;4964834;28;20240;-63
2023/07/12 04:32:02;;;;;;;11.50;5.13;;;;;;;21.88;94.70;151516.00;4967135;28;20244;-63
2023/07/12 04:34:28;;;;;;;10.30;5.10;;;;;;;21.89;93.89;151517.25;4964138;28;20235;-63
2023/07/12 04:36:55;;;;;;;9.13;4.90;;;;;;;21.91;93.91;151522.25;4967637;28;20656;-63
2023/07/12 04:39:22;;;;;;;8.83;5.03;;;;;;;21.86;94.32;151509.72;4964531;28;20247;-63
2023/07/12 04:41:48;;;;;;;9.20;5.17;;;;;;;21.99;92.39;151541.09;4981883;28;20240;-63
2023/07/12 04:44:15;;;;;;;9.17;5.13;;;;;;;21.98;91.84;151539.81;4963871;28;20743;-63
2023/07/12 04:46:42;;;;;;;12.63;4.70;;;;;;;22.05;91.63;151556.16;4966444;28;20236;-63
2023/07/12 04:49:10;;;;;;;8.10;4.50;;;;;;;22.07;92.43;151561.16;4967147;28;20274;-63
2023/07/12 04:51:36;;;;;;;11.50;4.40;;;;;;;22.08;90.04;151564.91;4964030;28;20323;-63
2023/07/12 04:54:03;;;;;;;7.87;4.50;;;;;;;22.18;89.39;151588.75;4966755;28;20685;-63
2023/07/12 04:56:30;;;;;;;9.63;4.80;;;;;;;22.21;90.26;151595.00;4964181;28;20244;-63
2023/07/12 04:58:57;;;;;;;11.40;4.77;;;;;;;22.25;90.07;151605.03;4966749;28;20675;-63
2023/07/12 05:01:24;;;;;;;6.77;4.33;;;;;;;22.21;89.38;151595.00;4963063;28;20243;-63
2023/07/12 05:03:50;;;;;;;12.97;4.30;;;;;;;22.29;86.69;151613.78;4966641;28;20240;-63
2023/07/12 05:06:18;;;;;;;10.47;4.90;;;;;;;22.29;88.23;151615.06;4963453;28;20218;-63
2023/07/12 05:08:45;;;;;;;9.17;4.40;;;;;;;22.39;86.74;151640.16;4966427;28;20234;-63
2023/07/12 05:11:13;;;;;;;8.47;4.30;;;;;;;22.48;85.47;151661.50;4963629;28;20244;-63
2023/07/12 05:13:39;;;;;;;11.97;4.27;;;;;;;22.44;87.43;151650.19;4966600;28;20250;-63
2023/07/12 05:16:31;;;;;;;9.77;4.20;;;;;;;22.28;88.64;151612.56;4964038;28;20260;-63
2023/07/12 05:18:58;;;;;;;11.17;4.10;;;;;;;22.36;85.41;151631.34;4966611;28;20641;-63
2023/07/12 05:21:26;;;;;;;8.07;3.53;;;;;;;22.45;83.05;151653.97;4963481;28;20248;-63
2023/07/12 05:23:53;;;;;;;8.30;3.90;;;;;;;22.54;84.71;151675.34;4966266;28;20288;-63
2023/07/12 05:26:19;;;;;;;6.77;3.70;;;;;;;22.46;82.72;151655.25;4963480;28;20635;-63
2023/07/12 05:28:46;;;;;;;10.43;3.87;;;;;;;22.48;85.40;151661.50;4966506;28;20288;-63
2023/07/12 05:31:14;;;;;;;9.57;4.60;;;;;;;22.41;84.29;151645.19;4963698;28;20294;-63
2023/07/12 05:33:43;;;;;;;7.40;3.93;;;;;;;22.44;83.33;151651.47;4966588;28;20629;-63
2023/07/12 05:36:13;;;;;;;9.97;4.00;;;;;;;22.47;83.36;151659.00;4963824;28;20226;-63
2023/07/12 05:38:41;;;;;;;7.23;3.90;;;;;;;22.55;79.36;151679.06;4966469;28;20663;-63
2023/07/12 05:41:13;;;;;;;19.33;4.53;;;;;;;22.65;78.27;151702.94;4961729;28;20292;-63
2023/07/12 05:43:40;;;;;;;8.67;3.67;;;;;;;22.62;82.20;151695.41;4965735;28;20797;-63
2023/07/12 05:46:13;;;;;;;19.03;3.93;;;;;;;22.58;80.43;151684.09;4962191;28;20229;-63
2023/07/12 05:48:40;;;;;;;9.80;3.70;;;;;;;22.48;80.79;151660.28;4966237;28;20331;-63
2023/07/12 05:51:31;;;;;;;6.67;3.37;;;;;;;22.55;79.72;151679.06;4963313;28;20641;-63
2023/07/12 05:53:59;;;;;;;6.97;3.20;;;;;;;22.50;79.56;151666.53;4965233;28;20230;-63
2023/07/12 05:56:26;;;;;;;7.57;3.30;;;;;;;22.53;78.61;151674.06;4963332;28;20237;-64
2023/07/12 05:58:52;;;;;;;6.37;3.50;;;;;;;22.52;79.11;151671.53;4966146;28;20249;-64
2023/07/12 06:01:20;;;;;;;7.70;3.30;;;;;;;22.52;79.81;151671.53;4962706;28;20259;-64
2023/07/12 06:03:47;;;;;;;8.63;3.47;;;;;;;22.54;79.27;151676.56;4965820;28;20240;-64
2023/07/12 06:06:13;;;;;;;9.03;3.00;;;;;;;22.60;77.17;151689.09;4962872;28;20225;-64
2023/07/12 06:08:40;;;;;;;9.57;3.37;;;;;;;22.62;77.96;151694.13;4966617;28;20234;-64
2023/07/12 06:11:14;;;;;;;6.70;2.93;;;;;;;22.56;78.00;151681.59;4963655;28;20269;-64
2023/07/12 06:13:41;;;;;;;9.17;3.50;;;;;;;22.56;79.02;151680.34;4969134;28;20279;-64
2023/07/12 06:16:13;;;;;;;6.47;3.37;;;;;;;22.58;79.27;151685.38;4967299;28;20256;-64
2023/07/12 06:18:39;;;;;;;6.67;3.60;;;;;;;22.63;78.22;151696.63;4969670;28;20238;-64
2023/07/12 06:21:10;;;;;;;6.97;3.90;;;;;;;22.67;80.02;151706.66;4967371;28;20249;-64
2023/07/12 06:23:37;;;;;;;4.87;3.63;;;;;;;22.62;78.91;151695.41;4969288;28;20237;-64
2023/07/12 06:26:04;;;;;;;11.23;3.70;;;;;;;22.65;78.74;151702.94;4969872;28;20233;-64
2023/07/12 06:28:32;;;;;;;7.97;3.77;;;;;;;22.81;77.83;151740.53;4966994;28;20236;-64
2023/07/12 06:30:59;;;;;;;9.17;3.60;;;;;;;22.88;77.75;151756.84;4968873;28;20291;-64
2023/07/12 06:33:25;;;;;;;5.60;3.40;;;;;;;23.04;75.87;151795.72;4966084;28;20292;-64
2023/07/12 06:35:52;;;;;;;7.30;4.00;;;;;;;23.08;74.99;151807.06;4969709;28;20236;-64
2023/07/12 06:38:19;;;;;;;6.53;3.53;;;;;;;23.27;75.51;151853.50;4965661;28;20241;-64
2023/07/12 06:40:46;;;;;;;7.77;3.10;;;;;;;23.37;74.85;151877.31;4969260;28;20587;-64
2023/07/12 06:43:12;;;;;;;8.83;3.57;;;;;;;23.49;75.84;151904.94;4966577;28;20232;-64
2023/07/12 06:45:40;;;;;;;10.90;3.70;;;;;;;23.71;72.88;151960.16;4969400;28;20230;-64
2023/07/12 06:48:07;;;;;;;10.17;3.93;;;;;;;23.74;74.39;151966.47;4969172;28;20240;-64
2023/07/12 06:50:33;;;;;;;8.07;3.77;;;;;;;23.46;75.80;151898.69;4966571;28;20239;-64
2023/07/12 06:53:00;;;;;;;10.67;4.20;;;;;;;23.59;74.87;151930.03;4969190;28;20241;-64
2023/07/12 06:55:27;;;;;;;7.50;3.83;;;;;;;23.67;73.90;151948.88;4966008;28;20236;-64
2023/07/12 06:57:53;;;;;;;4.93;3.20;;;;;;;23.77;76.20;151974.00;4969376;28;20238;-64
2023/07/12 07:00:20;;;;;;;9.07;4.00;;;;;;;23.72;77.03;151961.44;4965467;28;20254;-64
2023/07/12 07:02:48;;;;;;;8.27;3.92;;;;;;;23.85;75.51;151992.81;4982249;28;20446;-64
2023/07/12 07:05:15;;;;;;;6.47;4.10;;;;;;;23.92;74.47;152010.38;4966149;28;20284;-64
2023/07/12 07:07:41;;;;;;;7.87;4.07;;;;;;;24.08;77.07;152048.09;4968346;28;20232;-64
2023/07/12 07:10:08;;;;;;;11.70;4.50;;;;;;;24.02;74.43;152034.25;4967877;28;20696;-64
2023/07/12 07:12:35;;;;;;;7.97;4.67;;;;;;;24.20;76.57;152078.22;4964388;28;20234;-64
2023/07/12 07:15:02;;;;;;;6.73;4.27;;;;;;;24.39;76.07;152124.66;4968386;28;20239;-64
2023/07/12 07:17:29;;;;;;;7.40;3.90;;;;;;;24.60;72.83;152174.88;4964100;28;20240;-64
2023/07/12 07:19:57;;;;;;;8.57;3.70;;;;;;;24.29;74.05;152100.81;4968941;28;20718;-64
2023/07/12 07:22:35;;;;;;;5.80;3.70;;;;;;;24.36;72.10;152115.88;4965193;28;20230;-64
2023/07/12 07:25:16;;;;;;;8.73;3.77;;;;;;;23.93;75.77;152011.59;4955202;28;20296;-64
2023/07/12 07:27:43;;;;;;;9.33;4.50;;;;;;;24.01;74.30;152031.75;4968682;28;20246;-64
2023/07/12 07:30:11;;;;;;;12.90;4.23;;;;;;;24.25;73.57;152089.50;4964528;28;20237;-64
2023/07/12 07:32:37;;;;;;;6.07;3.90;;;;;;;24.41;72.94;152128.41;4967810;28;20259;-64
2023/07/12 07:35:06;;;;;;;8.23;4.13;;;;;;;24.55;72.59;152162.31;4966848;28;20230;-64
2023/07/12 07:37:33;;;;;;;5.77;3.80;;;;;;;24.76;69.73;152215.13;4965472;28;20700;-64
2023/07/12 07:39:59;;;;;;;10.13;4.23;;;;;;;24.61;72.41;152177.41;4968431;28;20604;-64
2023/07/12 07:42:26;;;;;;;7.47;4.00;;;;;;;24.40;70.43;152127.16;4964618;28;20250;-64
2023/07/12 07:44:53;;;;;;;8.33;4.33;;;;;;;24.49;70.58;152147.25;4968024;28;20367;-64
2023/07/12 07:47:19;;;;;;;9.03;4.07;;;;;;;24.54;71.72;152161.06;4963547;28;20231;-64
2023/07/12 07:49:46;;;;;;;8.47;3.87;;;;;;;24.71;70.25;152201.25;4966798;28;20235;-64
2023/07/12 07:52:14;;;;;;;7.47;3.77;;;;;;;24.73;70.17;152207.59;4964090;28;20305;-64
2023/07/12 07:54:40;;;;;;;8.60;3.77;;;;;;;25.06;73.67;152287.94;4967821;28;20297;-65
2023/07/12 07:57:07;;;;;;;7.73;4.00;;;;;;;25.03;69.94;152279.16;4968467;28;20237;-64
2023/07/12 07:59:34;;;;;;;10.23;4.00;;;;;;;25.01;72.10;152274.13;4964721;28;20233;-64
2023/07/12 08:02:01;;;;;;;13.83;4.63;;;;;;;25.08;71.38;152291.72;4966972;28;20235;-64
2023/07/12 08:04:28;;;;;;;7.23;4.60;;;;;;;25.24;71.71;152330.63;4964741;28;20236;-64
2023/07/12 08:06:56;;;;;;;7.03;3.93;;;;;;;25.33;71.32;152352.00;4965677;28;20254;-64
2023/07/12 08:09:24;;;;;;;9.07;4.30;;;;;;;25.36;70.94;152359.56;4964045;28;20224;-64
2023/07/12 08:11:50;;;;;;;7.10;4.23;;;;;;;25.49;71.96;152392.22;4966990;28;20658;-64
2023/07/12 08:14:18;;;;;;;6.13;3.93;;;;;;;25.64;69.73;152427.41;4963715;28;20635;-64
2023/07/12 08:16:44;;;;;;;9.77;4.20;;;;;;;25.49;68.64;152392.22;4965633;28;20228;-65
2023/07/12 08:19:11;;;;;;;9.50;3.93;;;;;;;25.29;69.76;152341.97;4964539;28;20243;-65
2023/07/12 08:21:37;;;;;;;9.13;3.97;;;;;;;25.37;69.63;152360.78;4966632;28;20240;-64
2023/07/12 08:24:05;;;;;;;8.27;3.85;;;;;;;25.72;68.47;152446.28;4966229;28;20230;-67
2023/07/12 08:26:32;;;;;;;8.77;3.90;;;;;;;26.02;68.38;152520.38;4963277;28;20662;-64
2023/07/12 08:28:59;;;;;;;9.40;3.70;;;;;;;25.62;67.15;152422.38;4966369;28;20236;-64
2023/07/12 08:31:26;;;;;;;6.50;3.37;;;;;;;25.91;64.24;152492.75;4961193;28;20237;-64
2023/07/12 08:33:53;;;;;;;9.70;3.80;;;;;;;26.11;65.43;152541.72;4965968;28;20604;-64
2023/07/12 08:36:21;;;;;;;9.60;3.85;;;;;;;25.89;65.38;152487.72;4961562;28;20259;-64
2023/07/12 08:38:47;;;;;;;9.10;4.50;;;;;;;25.79;66.01;152465.09;4954359;28;20550;-64
2023/07/12 08:41:16;;;;;;;6.00;3.50;;;;;;;26.22;65.40;152568.19;4963700;28;20243;-64
2023/07/12 08:43:45;;;;;;;5.13;2.58;;;;;;;26.18;57.81;152558.13;4967010;28;20862;-64
2023/07/12 08:46:16;;;;;;;11.43;3.37;;;;;;;25.97;63.97;152507.81;4962800;28;20249;-65
2023/07/12 08:48:43;;;;;;;9.17;3.30;;;;;;;26.38;61.73;152607.13;4966203;28;20240;-64
2023/07/12 08:51:16;;;;;;;5.47;3.10;;;;;;;26.35;58.14;152599.59;4963042;28;20326;-64
2023/07/12 08:53:45;;;;;;;8.57;4.03;;;;;;;26.68;58.95;152681.28;4965772;28;20219;-64
2023/07/12 08:56:15;;;;;;;6.95;3.30;;;;;;;27.00;60.25;152758.03;4963665;28;20229;-64
2023/07/12 08:58:47;;;;;;;11.68;2.58;;;;;;;27.11;58.81;152784.41;4965499;28;20226;-64
2023/07/12 09:01:20;;;;;;;12.13;3.85;;;;;;;26.85;59.77;152721.56;4962159;28;20243;-64
2023/07/12 09:03:46;;;;;;;7.90;3.10;;;;;;;26.60;59.23;152659.94;4964258;28;20706;-64
2023/07/12 09:06:14;;;;;;;7.22;3.10;;;;;;;26.88;58.39;152727.88;4961818;28;20617;-64
2023/07/12 09:08:45;;;;;;;6.38;2.80;;;;;;;26.90;58.22;152732.88;4965398;28;20243;-64
2023/07/12 09:11:15;;;;;;;7.38;3.30;;;;;;;26.52;57.17;152641.06;4962832;28;20264;-64
2023/07/12 09:13:44;;;;;;;4.90;2.80;;;;;;;26.53;56.19;152643.56;4965633;28;20247;-64
2023/07/12 09:16:23;;;;;;;4.90;2.92;;;;;;;27.12;58.19;152786.94;4961484;28;20354;-64
2023/07/12 09:18:54;;;;;;;6.30;2.83;;;;;;;27.55;53.76;152892.63;4966127;28;20235;-64
2023/07/12 09:21:23;;;;;;;4.03;2.93;;;;;;;27.28;55.06;152825.88;4962186;28;20235;-64
2023/07/12 09:23:52;;;;;;;6.47;2.67;;;;;;;27.51;54.07;152881.28;4966177;28;20228;-64
2023/07/12 09:26:23;;;;;;;7.80;3.15;;;;;;;26.85;54.12;152721.56;4962919;28;20232;-64
2023/07/12 09:28:50;;;;;;;6.28;3.20;;;;;;;27.03;54.87;152764.31;4966110;28;20235;-64
2023/07/12 09:31:23;;;;;;;5.83;2.83;;;;;;;26.45;56.93;152623.50;4962161;28;20262;-64
2023/07/12 09:33:54;;;;;;;6.67;3.33;;;;;;;26.47;58.51;152628.53;4965708;28;20636;-64
2023/07/12 09:36:21;;;;;;;5.47;3.20;;;;;;;26.58;55.94;152654.91;4963456;28;20231;-64
2023/07/12 09:38:48;;;;;;;8.50;3.00;;;;;;;26.88;55.64;152727.88;4966216;28;20235;-64
2023/07/12 09:41:18;;;;;;;4.75;2.90;;;;;;;27.19;56.11;152804.53;4963247;28;20239;-64
2023/07/12 09:43:48;;;;;;;7.63;2.90;;;;;;;27.31;54.65;152832.19;4965426;28;20254;-64
2023/07/12 09:46:37;;;;;;;6.80;2.85;;;;;;;27.04;54.48;152766.81;4961764;28;20238;-64
2023/07/12 09:49:07;;;;;;;5.00;3.03;;;;;;;26.56;56.54;152651.09;4980453;28;20245;-64
2023/07/12 09:51:42;;;;;;;7.00;3.30;;;;;;;27.17;53.86;152799.50;4960850;28;20241;-64
2023/07/12 09:54:22;;;;;;;6.07;3.03;;;;;;;27.64;54.82;152913.97;4965331;28;20264;-64
2023/07/12 09:56:54;;;;;;;8.13;2.70;;;;;;;28.01;51.35;153003.25;4962972;28;20240;-64
2023/07/12 09:59:33;;;;;;;5.15;3.08;;;;;;;28.01;51.64;153002.00;4962989;28;20291;-64
2023/07/12 10:02:16;;;;;;;4.22;2.80;;;;;;;27.49;54.77;152876.25;4964241;28;20262;-64
2023/07/12 10:04:48;;;;;;;6.30;2.70;;;;;;;27.94;51.79;152985.63;4962648;28;20232;-64
2023/07/12 10:07:32;;;;;;;5.90;3.07;;;;;;;27.81;51.63;152954.22;4962705;28;20230;-64
2023/07/12 10:09:59;;;;;;;8.25;3.25;;;;;;;27.63;52.67;152911.44;4965403;28;20238;-64
2023/07/12 10:12:31;;;;;;;5.50;2.97;;;;;;;27.77;52.80;152945.38;4953230;28;20255;-64
2023/07/12 10:14:58;;;;;;;7.55;2.67;;;;;;;28.18;52.37;153043.56;4964973;28;20247;-64
2023/07/12 10:17:32;;;;;;;9.98;3.47;;;;;;;28.66;49.24;153160.53;4961603;28;20236;-64
2023/07/12 10:19:59;;;;;;;6.60;3.38;;;;;;;28.52;49.76;153126.59;4965306;28;20629;-64
2023/07/12 10:22:32;;;;;;;8.65;3.10;;;;;;;28.18;52.03;153043.56;4962279;28;20228;-64
2023/07/12 10:25:01;;;;;;;5.70;2.65;;;;;;;28.39;51.92;153095.13;4963531;28;20260;-64
2023/07/12 10:27:38;;;;;;;5.78;2.60;;;;;;;28.71;48.23;153174.34;4962899;28;20236;-64
2023/07/12 10:30:12;;;;;;;6.50;3.17;;;;;;;28.54;49.26;153132.84;4965222;28;20323;-64
2023/07/12 10:32:44;;;;;;;4.97;2.95;;;;;;;28.83;49.06;153203.38;4958608;28;20705;-63
2023/07/12 10:35:19;;;;;;;6.53;2.70;;;;;;;28.52;48.41;153127.81;4962229;28;20228;-63
2023/07/12 10:37:49;;;;;;;5.80;2.47;;;;;;;27.90;52.58;152975.56;4965974;28;20611;-63
2023/07/12 10:40:20;;;;;;;9.35;3.05;;;;;;;27.97;53.17;152994.47;4962327;28;20243;-63
2023/07/12 10:42:53;;;;;;;7.57;3.58;;;;;;;27.92;53.86;152981.88;4965461;28;20227;-63
2023/07/12 10:45:25;;;;;;;5.97;3.00;;;;;;;27.69;52.63;152925.28;4961162;28;20255;-64
2023/07/12 10:47:54;;;;;;;8.37;2.77;;;;;;;27.49;52.73;152876.25;4964324;28;20232;-64
2023/07/12 10:50:24;;;;;;;4.72;2.88;;;;;;;27.74;52.48;152937.84;4962526;28;20233;-64
2023/07/12 10:53:02;;;;;;;9.05;3.10;;;;;;;27.44;54.26;152864.91;4963771;28;20245;-64
2023/07/12 10:55:47;;;;;;;5.43;2.77;;;;;;;27.58;55.58;152898.88;4962208;28;20783;-64
2023/07/12 10:58:26;;;;;;;5.95;3.30;;;;;;;28.59;51.93;153144.19;4978271;28;20278;-63
2023/07/12 11:00:55;;;;;;;7.97;2.80;;;;;;;29.16;50.18;153282.63;4981531;28;20232;-64
2023/07/12 11:03:33;;;;;;;6.20;3.15;;;;;;;29.22;47.35;153297.72;4964936;28;20232;-63
2023/07/12 11:06:07;;;;;;;5.88;2.53;;;;;;;28.84;49.18;153204.59;4968411;28;20318;-63
2023/07/12 11:08:53;;;;;;;5.35;2.70;;;;;;;28.51;50.61;153124.06;4964639;28;20311;-63
2023/07/12 11:11:44;;;;;;;7.53;2.77;;;;;;;28.80;51.08;153195.81;4965533;28;20236;-63
2023/07/12 11:14:25;;;;;;;9.30;3.03;;;;;;;28.91;48.75;153222.22;4950742;28;20280;-63
2023/07/12 11:17:11;;;;;;;7.22;2.95;;;;;;;28.68;49.38;153166.81;4967049;28;20280;-63
2023/07/12 11:19:48;;;;;;;4.07;2.50;;;;;;;28.63;50.82;153153.00;4966023;28;20714;-63
2023/07/12 11:22:18;;;;;;;8.15;2.88;;;;;;;28.76;49.47;153185.75;4964980;28;20289;-63
2023/07/12 11:24:56;;;;;;;6.13;2.70;;;;;;;28.41;50.31;153101.44;4967735;28;20264;-63
2023/07/12 11:27:40;;;;;;;5.65;2.53;;;;;;;28.47;51.85;153115.25;4965453;28;20238;-63
2023/07/12 11:30:15;;;;;;;4.95;2.63;;;;;;;28.38;48.40;153092.59;4968488;28;20320;-63
2023/07/12 11:32:46;;;;;;;4.72;2.85;;;;;;;28.24;49.49;153058.66;4963222;28;20262;-64